<?xml version="1.0" encoding="UTF-8"?>
<gpx xmlns="http://www.topografix.com/GPX/1/1" xmlns:xsi="http://www.w3.org/2001/XMLSchema-instance" version="1.1" xsi:schemaLocation="http://www.topografix.com/GPX/1/1 http://www.topografix.com/GPX/1/1/gpx.xsd">
  <metadata>
    <name>Box End Triathlon - Aquabike Sprint</name>
  </metadata>
  <trk>
    <name>Box End Triathlon - Aquabike Sprint</name>
    <trkseg>
      <trkpt lat="52.12176" lon="-0.523219">
        <ele>34.198215</ele>
        <time>2024-05-19T07:15:00.000Z</time>
      </trkpt>
      <trkpt lat="52.121462" lon="-0.523177">
        <ele>34.198218</ele>
        <time>2024-05-19T07:15:03.000Z</time>
      </trkpt>
      <trkpt lat="52.121096" lon="-0.523037">
        <ele>34.198208</ele>
        <time>2024-05-19T07:15:07.000Z</time>
      </trkpt>
      <trkpt lat="52.120349" lon="-0.52262">
        <ele>34.541298</ele>
        <time>2024-05-19T07:15:16.000Z</time>
      </trkpt>
      <trkpt lat="52.120049" lon="-0.522333">
        <ele>34.756242</ele>
        <time>2024-05-19T07:15:20.000Z</time>
      </trkpt>
      <trkpt lat="52.119185" lon="-0.521233">
        <ele>35.107188</ele>
        <time>2024-05-19T07:15:32.000Z</time>
      </trkpt>
      <trkpt lat="52.119092" lon="-0.521093">
        <ele>34.998916</ele>
        <time>2024-05-19T07:15:33.000Z</time>
      </trkpt>
      <trkpt lat="52.118584" lon="-0.520433">
        <ele>34.39559</ele>
        <time>2024-05-19T07:15:40.000Z</time>
      </trkpt>
      <trkpt lat="52.118101" lon="-0.51978">
        <ele>33.83596</ele>
        <time>2024-05-19T07:15:47.000Z</time>
      </trkpt>
      <trkpt lat="52.117998" lon="-0.519604">
        <ele>33.70592</ele>
        <time>2024-05-19T07:15:49.000Z</time>
      </trkpt>
      <trkpt lat="52.117335" lon="-0.51858">
        <ele>32.594911</ele>
        <time>2024-05-19T07:15:59.000Z</time>
      </trkpt>
      <trkpt lat="52.117392" lon="-0.51848">
        <ele>32.496632</ele>
        <time>2024-05-19T07:16:00.000Z</time>
      </trkpt>
      <trkpt lat="52.117403" lon="-0.518281">
        <ele>32.347229</ele>
        <time>2024-05-19T07:16:01.000Z</time>
      </trkpt>
      <trkpt lat="52.11738" lon="-0.518184">
        <ele>32.262558</ele>
        <time>2024-05-19T07:16:02.000Z</time>
      </trkpt>
      <trkpt lat="52.118134" lon="-0.51704">
        <ele>31.138555</ele>
        <time>2024-05-19T07:16:13.000Z</time>
      </trkpt>
      <trkpt lat="52.118881" lon="-0.515813">
        <ele>30.21321</ele>
        <time>2024-05-19T07:16:25.000Z</time>
      </trkpt>
      <trkpt lat="52.119434" lon="-0.515038">
        <ele>29.74914</ele>
        <time>2024-05-19T07:16:33.000Z</time>
      </trkpt>
      <trkpt lat="52.120232" lon="-0.513811">
        <ele>29.307184</ele>
        <time>2024-05-19T07:16:45.000Z</time>
      </trkpt>
      <trkpt lat="52.120551" lon="-0.513232">
        <ele>29.181464</ele>
        <time>2024-05-19T07:16:50.000Z</time>
      </trkpt>
      <trkpt lat="52.120747" lon="-0.513055">
        <ele>29.195482</ele>
        <time>2024-05-19T07:16:52.000Z</time>
      </trkpt>
      <trkpt lat="52.120796" lon="-0.513092">
        <ele>29.19915</ele>
        <time>2024-05-19T07:16:53.000Z</time>
      </trkpt>
      <trkpt lat="52.120856" lon="-0.513096">
        <ele>29.202758</ele>
        <time>2024-05-19T07:16:54.000Z</time>
      </trkpt>
      <trkpt lat="52.121131" lon="-0.513236">
        <ele>29.220509</ele>
        <time>2024-05-19T07:16:57.000Z</time>
      </trkpt>
      <trkpt lat="52.121303" lon="-0.513489">
        <ele>29.234781</ele>
        <time>2024-05-19T07:17:00.000Z</time>
      </trkpt>
      <trkpt lat="52.121959" lon="-0.514337">
        <ele>29.304586</ele>
        <time>2024-05-19T07:17:09.000Z</time>
      </trkpt>
      <trkpt lat="52.122414" lon="-0.514788">
        <ele>29.575464</ele>
        <time>2024-05-19T07:17:15.000Z</time>
      </trkpt>
      <trkpt lat="52.12365" lon="-0.515653">
        <ele>30.22882</ele>
        <time>2024-05-19T07:17:30.000Z</time>
      </trkpt>
      <trkpt lat="52.126795" lon="-0.517207">
        <ele>31.351071</ele>
        <time>2024-05-19T07:18:07.000Z</time>
      </trkpt>
      <trkpt lat="52.127943" lon="-0.517695">
        <ele>31.521027</ele>
        <time>2024-05-19T07:18:20.000Z</time>
      </trkpt>
      <trkpt lat="52.128326" lon="-0.517844">
        <ele>31.565211</ele>
        <time>2024-05-19T07:18:24.000Z</time>
      </trkpt>
      <trkpt lat="52.128541" lon="-0.517961">
        <ele>31.590655</ele>
        <time>2024-05-19T07:18:27.000Z</time>
      </trkpt>
      <trkpt lat="52.128714" lon="-0.518173">
        <ele>31.606711</ele>
        <time>2024-05-19T07:18:29.000Z</time>
      </trkpt>
      <trkpt lat="52.128796" lon="-0.518302">
        <ele>31.589102</ele>
        <time>2024-05-19T07:18:30.000Z</time>
      </trkpt>
      <trkpt lat="52.128813" lon="-0.518489">
        <ele>31.571257</ele>
        <time>2024-05-19T07:18:31.000Z</time>
      </trkpt>
      <trkpt lat="52.128859" lon="-0.518664">
        <ele>31.554092</ele>
        <time>2024-05-19T07:18:32.000Z</time>
      </trkpt>
      <trkpt lat="52.129006" lon="-0.518812">
        <ele>31.527303</ele>
        <time>2024-05-19T07:18:34.000Z</time>
      </trkpt>
      <trkpt lat="52.129223" lon="-0.518756">
        <ele>31.494737</ele>
        <time>2024-05-19T07:18:36.000Z</time>
      </trkpt>
      <trkpt lat="52.129269" lon="-0.518679">
        <ele>31.486482</ele>
        <time>2024-05-19T07:18:37.000Z</time>
      </trkpt>
      <trkpt lat="52.129637" lon="-0.518685">
        <ele>31.431326</ele>
        <time>2024-05-19T07:18:41.000Z</time>
      </trkpt>
      <trkpt lat="52.129848" lon="-0.518776">
        <ele>31.398191</ele>
        <time>2024-05-19T07:18:43.000Z</time>
      </trkpt>
      <trkpt lat="52.131294" lon="-0.519594">
        <ele>31.080905</ele>
        <time>2024-05-19T07:19:00.000Z</time>
      </trkpt>
      <trkpt lat="52.134241" lon="-0.52146">
        <ele>30.405128</ele>
        <time>2024-05-19T07:19:35.000Z</time>
      </trkpt>
      <trkpt lat="52.135172" lon="-0.521903">
        <ele>30.297849</ele>
        <time>2024-05-19T07:19:46.000Z</time>
      </trkpt>
      <trkpt lat="52.135928" lon="-0.522158">
        <ele>30.460384</ele>
        <time>2024-05-19T07:19:55.000Z</time>
      </trkpt>
      <trkpt lat="52.136086" lon="-0.522203">
        <ele>30.500433</ele>
        <time>2024-05-19T07:19:57.000Z</time>
      </trkpt>
      <trkpt lat="52.136929" lon="-0.522333">
        <ele>30.720627</ele>
        <time>2024-05-19T07:20:06.000Z</time>
      </trkpt>
      <trkpt lat="52.137685" lon="-0.522349">
        <ele>30.912612</ele>
        <time>2024-05-19T07:20:14.000Z</time>
      </trkpt>
      <trkpt lat="52.141529" lon="-0.521838">
        <ele>31.641051</ele>
        <time>2024-05-19T07:20:57.000Z</time>
      </trkpt>
      <trkpt lat="52.141763" lon="-0.521801">
        <ele>31.667936</ele>
        <time>2024-05-19T07:21:00.000Z</time>
      </trkpt>
      <trkpt lat="52.142093" lon="-0.521907">
        <ele>31.706472</ele>
        <time>2024-05-19T07:21:04.000Z</time>
      </trkpt>
      <trkpt lat="52.142458" lon="-0.522105">
        <ele>31.777927</ele>
        <time>2024-05-19T07:21:08.000Z</time>
      </trkpt>
      <trkpt lat="52.14247" lon="-0.522157">
        <ele>31.805288</ele>
        <time>2024-05-19T07:21:08.000Z</time>
      </trkpt>
      <trkpt lat="52.142492" lon="-0.522219">
        <ele>31.832404</ele>
        <time>2024-05-19T07:21:08.000Z</time>
      </trkpt>
      <trkpt lat="52.14253" lon="-0.522257">
        <ele>31.859677</ele>
        <time>2024-05-19T07:21:08.000Z</time>
      </trkpt>
      <trkpt lat="52.142606" lon="-0.522762">
        <ele>32.069293</ele>
        <time>2024-05-19T07:21:12.000Z</time>
      </trkpt>
      <trkpt lat="52.142648" lon="-0.523344">
        <ele>32.310796</ele>
        <time>2024-05-19T07:21:16.000Z</time>
      </trkpt>
      <trkpt lat="52.142579" lon="-0.523838">
        <ele>32.522223</ele>
        <time>2024-05-19T07:21:19.000Z</time>
      </trkpt>
      <trkpt lat="52.142345" lon="-0.525769">
        <ele>34.365563</ele>
        <time>2024-05-19T07:21:32.000Z</time>
      </trkpt>
      <trkpt lat="52.142216" lon="-0.526826">
        <ele>36.050339</ele>
        <time>2024-05-19T07:21:39.000Z</time>
      </trkpt>
      <trkpt lat="52.142038" lon="-0.528058">
        <ele>38.400869</ele>
        <time>2024-05-19T07:21:48.000Z</time>
      </trkpt>
      <trkpt lat="52.141752" lon="-0.529859">
        <ele>43.519699</ele>
        <time>2024-05-19T07:22:01.000Z</time>
      </trkpt>
      <trkpt lat="52.141305" lon="-0.532038">
        <ele>48.879056</ele>
        <time>2024-05-19T07:22:17.000Z</time>
      </trkpt>
      <trkpt lat="52.140531" lon="-0.535242">
        <ele>53.521554</ele>
        <time>2024-05-19T07:22:41.000Z</time>
      </trkpt>
      <trkpt lat="52.140333" lon="-0.536066">
        <ele>54.199182</ele>
        <time>2024-05-19T07:22:47.000Z</time>
      </trkpt>
      <trkpt lat="52.140304" lon="-0.536206">
        <ele>54.090548</ele>
        <time>2024-05-19T07:22:48.000Z</time>
      </trkpt>
      <trkpt lat="52.140151" lon="-0.537135">
        <ele>53.376706</ele>
        <time>2024-05-19T07:22:55.000Z</time>
      </trkpt>
      <trkpt lat="52.140004" lon="-0.538317">
        <ele>52.490017</ele>
        <time>2024-05-19T07:23:03.000Z</time>
      </trkpt>
      <trkpt lat="52.139893" lon="-0.539853">
        <ele>50.01463</ele>
        <time>2024-05-19T07:23:14.000Z</time>
      </trkpt>
      <trkpt lat="52.139877" lon="-0.540878">
        <ele>47.809453</ele>
        <time>2024-05-19T07:23:21.000Z</time>
      </trkpt>
      <trkpt lat="52.139885" lon="-0.541465">
        <ele>46.592049</ele>
        <time>2024-05-19T07:23:25.000Z</time>
      </trkpt>
      <trkpt lat="52.139905" lon="-0.542016">
        <ele>45.59409</ele>
        <time>2024-05-19T07:23:29.000Z</time>
      </trkpt>
      <trkpt lat="52.139941" lon="-0.54254">
        <ele>44.939438</ele>
        <time>2024-05-19T07:23:33.000Z</time>
      </trkpt>
      <trkpt lat="52.140023" lon="-0.543015">
        <ele>44.317586</ele>
        <time>2024-05-19T07:23:36.000Z</time>
      </trkpt>
      <trkpt lat="52.140146" lon="-0.543897">
        <ele>43.217753</ele>
        <time>2024-05-19T07:23:42.000Z</time>
      </trkpt>
      <trkpt lat="52.140288" lon="-0.544367">
        <ele>42.570531</ele>
        <time>2024-05-19T07:23:46.000Z</time>
      </trkpt>
      <trkpt lat="52.140578" lon="-0.544931">
        <ele>42.517586</ele>
        <time>2024-05-19T07:23:51.000Z</time>
      </trkpt>
      <trkpt lat="52.140671" lon="-0.545081">
        <ele>42.671024</ele>
        <time>2024-05-19T07:23:52.000Z</time>
      </trkpt>
      <trkpt lat="52.140662" lon="-0.54517">
        <ele>42.740191</ele>
        <time>2024-05-19T07:23:53.000Z</time>
      </trkpt>
      <trkpt lat="52.140695" lon="-0.545284">
        <ele>42.818552</ele>
        <time>2024-05-19T07:23:54.000Z</time>
      </trkpt>
      <trkpt lat="52.140759" lon="-0.545337">
        <ele>42.900211</ele>
        <time>2024-05-19T07:23:55.000Z</time>
      </trkpt>
      <trkpt lat="52.140683" lon="-0.545777">
        <ele>43.215578</ele>
        <time>2024-05-19T07:23:58.000Z</time>
      </trkpt>
      <trkpt lat="52.140464" lon="-0.546994">
        <ele>44.097877</ele>
        <time>2024-05-19T07:24:07.000Z</time>
      </trkpt>
      <trkpt lat="52.140366" lon="-0.54731">
        <ele>44.245556</ele>
        <time>2024-05-19T07:24:09.000Z</time>
      </trkpt>
      <trkpt lat="52.140301" lon="-0.547474">
        <ele>44.256664</ele>
        <time>2024-05-19T07:24:10.000Z</time>
      </trkpt>
      <trkpt lat="52.140162" lon="-0.547863">
        <ele>44.282584</ele>
        <time>2024-05-19T07:24:13.000Z</time>
      </trkpt>
      <trkpt lat="52.140018" lon="-0.548199">
        <ele>44.306975</ele>
        <time>2024-05-19T07:24:16.000Z</time>
      </trkpt>
      <trkpt lat="52.139959" lon="-0.54834">
        <ele>44.317589</ele>
        <time>2024-05-19T07:24:17.000Z</time>
      </trkpt>
      <trkpt lat="52.139448" lon="-0.549347">
        <ele>44.392552</ele>
        <time>2024-05-19T07:24:26.000Z</time>
      </trkpt>
      <trkpt lat="52.138343" lon="-0.550989">
        <ele>43.540194</ele>
        <time>2024-05-19T07:24:43.000Z</time>
      </trkpt>
      <trkpt lat="52.137372" lon="-0.55234">
        <ele>43.310191</ele>
        <time>2024-05-19T07:24:57.000Z</time>
      </trkpt>
      <trkpt lat="52.137257" lon="-0.552489">
        <ele>43.322879</ele>
        <time>2024-05-19T07:24:59.000Z</time>
      </trkpt>
      <trkpt lat="52.135662" lon="-0.554546">
        <ele>44.342377</ele>
        <time>2024-05-19T07:25:22.000Z</time>
      </trkpt>
      <trkpt lat="52.13519" lon="-0.555141">
        <ele>44.806572</ele>
        <time>2024-05-19T07:25:29.000Z</time>
      </trkpt>
      <trkpt lat="52.134506" lon="-0.556025">
        <ele>45.274049</ele>
        <time>2024-05-19T07:25:39.000Z</time>
      </trkpt>
      <trkpt lat="52.131323" lon="-0.559654">
        <ele>46.973374</ele>
        <time>2024-05-19T07:26:22.000Z</time>
      </trkpt>
      <trkpt lat="52.130728" lon="-0.560381">
        <ele>47.235646</ele>
        <time>2024-05-19T07:26:30.000Z</time>
      </trkpt>
      <trkpt lat="52.130545" lon="-0.560579">
        <ele>47.473904</ele>
        <time>2024-05-19T07:26:32.000Z</time>
      </trkpt>
      <trkpt lat="52.13022" lon="-0.560958">
        <ele>47.923961</ele>
        <time>2024-05-19T07:26:36.000Z</time>
      </trkpt>
      <trkpt lat="52.129876" lon="-0.561454">
        <ele>48.428662</ele>
        <time>2024-05-19T07:26:41.000Z</time>
      </trkpt>
      <trkpt lat="52.129565" lon="-0.560451">
        <ele>49.483798</ele>
        <time>2024-05-19T07:26:49.000Z</time>
      </trkpt>
      <trkpt lat="52.129512" lon="-0.560279">
        <ele>50.174044</ele>
        <time>2024-05-19T07:26:50.000Z</time>
      </trkpt>
      <trkpt lat="52.12943" lon="-0.560162">
        <ele>50.785245</ele>
        <time>2024-05-19T07:26:51.000Z</time>
      </trkpt>
      <trkpt lat="52.12901" lon="-0.559894">
        <ele>53.406174</ele>
        <time>2024-05-19T07:26:56.000Z</time>
      </trkpt>
      <trkpt lat="52.128833" lon="-0.559673">
        <ele>54.587372</ele>
        <time>2024-05-19T07:26:58.000Z</time>
      </trkpt>
      <trkpt lat="52.127894" lon="-0.557691">
        <ele>64.106664</ele>
        <time>2024-05-19T07:27:15.000Z</time>
      </trkpt>
      <trkpt lat="52.127298" lon="-0.556345">
        <ele>71.095245</ele>
        <time>2024-05-19T07:27:26.000Z</time>
      </trkpt>
      <trkpt lat="52.126789" lon="-0.554639">
        <ele>72.876733</ele>
        <time>2024-05-19T07:27:39.000Z</time>
      </trkpt>
      <trkpt lat="52.126559" lon="-0.553805">
        <ele>73.553537</ele>
        <time>2024-05-19T07:27:45.000Z</time>
      </trkpt>
      <trkpt lat="52.126381" lon="-0.553317">
        <ele>72.660639</ele>
        <time>2024-05-19T07:27:49.000Z</time>
      </trkpt>
      <trkpt lat="52.126126" lon="-0.552698">
        <ele>70.350009</ele>
        <time>2024-05-19T07:27:54.000Z</time>
      </trkpt>
      <trkpt lat="52.125817" lon="-0.552117">
        <ele>67.932104</ele>
        <time>2024-05-19T07:27:59.000Z</time>
      </trkpt>
      <trkpt lat="52.125188" lon="-0.550244">
        <ele>60.947873</ele>
        <time>2024-05-19T07:28:14.000Z</time>
      </trkpt>
      <trkpt lat="52.124458" lon="-0.548596">
        <ele>54.196116</ele>
        <time>2024-05-19T07:28:28.000Z</time>
      </trkpt>
      <trkpt lat="52.124212" lon="-0.547648">
        <ele>51.8868</ele>
        <time>2024-05-19T07:28:35.000Z</time>
      </trkpt>
      <trkpt lat="52.123571" lon="-0.545177">
        <ele>47.029634</ele>
        <time>2024-05-19T07:28:53.000Z</time>
      </trkpt>
      <trkpt lat="52.123115" lon="-0.543162">
        <ele>44.726951</ele>
        <time>2024-05-19T07:29:08.000Z</time>
      </trkpt>
      <trkpt lat="52.122909" lon="-0.543363">
        <ele>44.625103</ele>
        <time>2024-05-19T07:29:11.000Z</time>
      </trkpt>
      <trkpt lat="52.121792" lon="-0.544846">
        <ele>44.032839</ele>
        <time>2024-05-19T07:29:27.000Z</time>
      </trkpt>
      <trkpt lat="52.120297" lon="-0.547531">
        <ele>44.319105</ele>
        <time>2024-05-19T07:29:52.000Z</time>
      </trkpt>
      <trkpt lat="52.119876" lon="-0.547092">
        <ele>44.112917</ele>
        <time>2024-05-19T07:29:58.000Z</time>
      </trkpt>
      <trkpt lat="52.119131" lon="-0.54619">
        <ele>43.759511</ele>
        <time>2024-05-19T07:30:08.000Z</time>
      </trkpt>
      <trkpt lat="52.118946" lon="-0.545963">
        <ele>43.820015</ele>
        <time>2024-05-19T07:30:11.000Z</time>
      </trkpt>
      <trkpt lat="52.118474" lon="-0.545374">
        <ele>43.972231</ele>
        <time>2024-05-19T07:30:18.000Z</time>
      </trkpt>
      <trkpt lat="52.118406" lon="-0.545293">
        <ele>43.992516</ele>
        <time>2024-05-19T07:30:19.000Z</time>
      </trkpt>
      <trkpt lat="52.117855" lon="-0.544517">
        <ele>44.178717</ele>
        <time>2024-05-19T07:30:27.000Z</time>
      </trkpt>
      <trkpt lat="52.117545" lon="-0.544085">
        <ele>44.320862</ele>
        <time>2024-05-19T07:30:32.000Z</time>
      </trkpt>
      <trkpt lat="52.117464" lon="-0.543922">
        <ele>44.369921</ele>
        <time>2024-05-19T07:30:33.000Z</time>
      </trkpt>
      <trkpt lat="52.117411" lon="-0.543734">
        <ele>44.415441</ele>
        <time>2024-05-19T07:30:34.000Z</time>
      </trkpt>
      <trkpt lat="52.117419" lon="-0.543281">
        <ele>44.521049</ele>
        <time>2024-05-19T07:30:37.000Z</time>
      </trkpt>
      <trkpt lat="52.117726" lon="-0.540267">
        <ele>43.860621</ele>
        <time>2024-05-19T07:30:58.000Z</time>
      </trkpt>
      <trkpt lat="52.11779" lon="-0.539556">
        <ele>43.362402</ele>
        <time>2024-05-19T07:31:03.000Z</time>
      </trkpt>
      <trkpt lat="52.117796" lon="-0.539491">
        <ele>43.32169</ele>
        <time>2024-05-19T07:31:03.000Z</time>
      </trkpt>
      <trkpt lat="52.117832" lon="-0.53881">
        <ele>42.850374</ele>
        <time>2024-05-19T07:31:08.000Z</time>
      </trkpt>
      <trkpt lat="52.117949" lon="-0.537606">
        <ele>42.184375</ele>
        <time>2024-05-19T07:31:16.000Z</time>
      </trkpt>
      <trkpt lat="52.117873" lon="-0.537388">
        <ele>42.047301</ele>
        <time>2024-05-19T07:31:18.000Z</time>
      </trkpt>
      <trkpt lat="52.117726" lon="-0.537285">
        <ele>41.902318</ele>
        <time>2024-05-19T07:31:20.000Z</time>
      </trkpt>
      <trkpt lat="52.117132" lon="-0.537185">
        <ele>41.360686</ele>
        <time>2024-05-19T07:31:27.000Z</time>
      </trkpt>
      <trkpt lat="52.116846" lon="-0.536951">
        <ele>41.509715</ele>
        <time>2024-05-19T07:31:31.000Z</time>
      </trkpt>
      <trkpt lat="52.11662" lon="-0.536437">
        <ele>42.01421</ele>
        <time>2024-05-19T07:31:35.000Z</time>
      </trkpt>
      <trkpt lat="52.116478" lon="-0.536313">
        <ele>42.211266</ele>
        <time>2024-05-19T07:31:37.000Z</time>
      </trkpt>
      <trkpt lat="52.116423" lon="-0.53631">
        <ele>42.302053</ele>
        <time>2024-05-19T07:31:38.000Z</time>
      </trkpt>
      <trkpt lat="52.11632" lon="-0.536358">
        <ele>42.42497</ele>
        <time>2024-05-19T07:31:39.000Z</time>
      </trkpt>
      <trkpt lat="52.115697" lon="-0.537194">
        <ele>43.478171</ele>
        <time>2024-05-19T07:31:48.000Z</time>
      </trkpt>
      <trkpt lat="52.115288" lon="-0.537622">
        <ele>44.2206</ele>
        <time>2024-05-19T07:31:53.000Z</time>
      </trkpt>
      <trkpt lat="52.114835" lon="-0.537987">
        <ele>45.01488</ele>
        <time>2024-05-19T07:31:59.000Z</time>
      </trkpt>
      <trkpt lat="52.11398" lon="-0.538478">
        <ele>46.42549</ele>
        <time>2024-05-19T07:32:09.000Z</time>
      </trkpt>
      <trkpt lat="52.113199" lon="-0.53913">
        <ele>47.013119</ele>
        <time>2024-05-19T07:32:19.000Z</time>
      </trkpt>
      <trkpt lat="52.11288" lon="-0.539301">
        <ele>47.240325</ele>
        <time>2024-05-19T07:32:23.000Z</time>
      </trkpt>
      <trkpt lat="52.111818" lon="-0.540306">
        <ele>47.569465</ele>
        <time>2024-05-19T07:32:37.000Z</time>
      </trkpt>
      <trkpt lat="52.111495" lon="-0.540489">
        <ele>47.541423</ele>
        <time>2024-05-19T07:32:41.000Z</time>
      </trkpt>
      <trkpt lat="52.111298" lon="-0.540573">
        <ele>47.524823</ele>
        <time>2024-05-19T07:32:43.000Z</time>
      </trkpt>
      <trkpt lat="52.111178" lon="-0.540618">
        <ele>47.514528</ele>
        <time>2024-05-19T07:32:44.000Z</time>
      </trkpt>
      <trkpt lat="52.111016" lon="-0.540672">
        <ele>47.499942</ele>
        <time>2024-05-19T07:32:46.000Z</time>
      </trkpt>
      <trkpt lat="52.11086" lon="-0.540686">
        <ele>47.486853</ele>
        <time>2024-05-19T07:32:48.000Z</time>
      </trkpt>
      <trkpt lat="52.110693" lon="-0.540648">
        <ele>47.469596</ele>
        <time>2024-05-19T07:32:50.000Z</time>
      </trkpt>
      <trkpt lat="52.11037" lon="-0.540527">
        <ele>47.376277</ele>
        <time>2024-05-19T07:32:54.000Z</time>
      </trkpt>
      <trkpt lat="52.110152" lon="-0.540321">
        <ele>47.307727</ele>
        <time>2024-05-19T07:32:57.000Z</time>
      </trkpt>
      <trkpt lat="52.110094" lon="-0.540258">
        <ele>47.292451</ele>
        <time>2024-05-19T07:32:58.000Z</time>
      </trkpt>
      <trkpt lat="52.110042" lon="-0.540118">
        <ele>47.262398</ele>
        <time>2024-05-19T07:32:59.000Z</time>
      </trkpt>
      <trkpt lat="52.10975" lon="-0.539027">
        <ele>47.06109</ele>
        <time>2024-05-19T07:33:07.000Z</time>
      </trkpt>
      <trkpt lat="52.1095" lon="-0.538385">
        <ele>46.796217</ele>
        <time>2024-05-19T07:33:12.000Z</time>
      </trkpt>
      <trkpt lat="52.109346" lon="-0.537951">
        <ele>46.476189</ele>
        <time>2024-05-19T07:33:15.000Z</time>
      </trkpt>
      <trkpt lat="52.109331" lon="-0.537877">
        <ele>46.422494</ele>
        <time>2024-05-19T07:33:16.000Z</time>
      </trkpt>
      <trkpt lat="52.10926" lon="-0.537476">
        <ele>46.162382</ele>
        <time>2024-05-19T07:33:19.000Z</time>
      </trkpt>
      <trkpt lat="52.109228" lon="-0.5372">
        <ele>45.977131</ele>
        <time>2024-05-19T07:33:21.000Z</time>
      </trkpt>
      <trkpt lat="52.10923" lon="-0.536852">
        <ele>45.752384</ele>
        <time>2024-05-19T07:33:23.000Z</time>
      </trkpt>
      <trkpt lat="52.109335" lon="-0.535582">
        <ele>44.881531</ele>
        <time>2024-05-19T07:33:32.000Z</time>
      </trkpt>
      <trkpt lat="52.10944" lon="-0.534694">
        <ele>44.148717</ele>
        <time>2024-05-19T07:33:38.000Z</time>
      </trkpt>
      <trkpt lat="52.109596" lon="-0.532483">
        <ele>42.558677</ele>
        <time>2024-05-19T07:33:53.000Z</time>
      </trkpt>
      <trkpt lat="52.109602" lon="-0.53226">
        <ele>42.484299</ele>
        <time>2024-05-19T07:33:55.000Z</time>
      </trkpt>
      <trkpt lat="52.109607" lon="-0.532224">
        <ele>42.469872</ele>
        <time>2024-05-19T07:33:55.000Z</time>
      </trkpt>
      <trkpt lat="52.109691" lon="-0.531045">
        <ele>42.043588</ele>
        <time>2024-05-19T07:34:03.000Z</time>
      </trkpt>
      <trkpt lat="52.109826" lon="-0.530007">
        <ele>41.681821</ele>
        <time>2024-05-19T07:34:10.000Z</time>
      </trkpt>
      <trkpt lat="52.110037" lon="-0.528837">
        <ele>41.705693</ele>
        <time>2024-05-19T07:34:18.000Z</time>
      </trkpt>
      <trkpt lat="52.110106" lon="-0.528506">
        <ele>41.71289</ele>
        <time>2024-05-19T07:34:20.000Z</time>
      </trkpt>
      <trkpt lat="52.110279" lon="-0.52773">
        <ele>41.729361</ele>
        <time>2024-05-19T07:34:26.000Z</time>
      </trkpt>
      <trkpt lat="52.110391" lon="-0.527159">
        <ele>41.723028</ele>
        <time>2024-05-19T07:34:30.000Z</time>
      </trkpt>
      <trkpt lat="52.110366" lon="-0.527028">
        <ele>41.704654</ele>
        <time>2024-05-19T07:34:31.000Z</time>
      </trkpt>
      <trkpt lat="52.110437" lon="-0.526939">
        <ele>41.683131</ele>
        <time>2024-05-19T07:34:32.000Z</time>
      </trkpt>
      <trkpt lat="52.110464" lon="-0.526833">
        <ele>41.664926</ele>
        <time>2024-05-19T07:34:33.000Z</time>
      </trkpt>
      <trkpt lat="52.110538" lon="-0.525901">
        <ele>41.534354</ele>
        <time>2024-05-19T07:34:39.000Z</time>
      </trkpt>
      <trkpt lat="52.110568" lon="-0.525015">
        <ele>41.408983</ele>
        <time>2024-05-19T07:34:45.000Z</time>
      </trkpt>
      <trkpt lat="52.110599" lon="-0.524565">
        <ele>41.345029</ele>
        <time>2024-05-19T07:34:48.000Z</time>
      </trkpt>
      <trkpt lat="52.110613" lon="-0.524151">
        <ele>41.182171</ele>
        <time>2024-05-19T07:34:51.000Z</time>
      </trkpt>
      <trkpt lat="52.110665" lon="-0.522161">
        <ele>40.164218</ele>
        <time>2024-05-19T07:35:05.000Z</time>
      </trkpt>
      <trkpt lat="52.110677" lon="-0.521959">
        <ele>40.065931</ele>
        <time>2024-05-19T07:35:06.000Z</time>
      </trkpt>
      <trkpt lat="52.110733" lon="-0.521533">
        <ele>39.842374</ele>
        <time>2024-05-19T07:35:09.000Z</time>
      </trkpt>
      <trkpt lat="52.11078" lon="-0.521159">
        <ele>39.632427</ele>
        <time>2024-05-19T07:35:12.000Z</time>
      </trkpt>
      <trkpt lat="52.110861" lon="-0.520734">
        <ele>39.400837</ele>
        <time>2024-05-19T07:35:15.000Z</time>
      </trkpt>
      <trkpt lat="52.110946" lon="-0.520187">
        <ele>39.097687</ele>
        <time>2024-05-19T07:35:19.000Z</time>
      </trkpt>
      <trkpt lat="52.110972" lon="-0.520001">
        <ele>38.992665</ele>
        <time>2024-05-19T07:35:20.000Z</time>
      </trkpt>
      <trkpt lat="52.111049" lon="-0.519582">
        <ele>38.755015</ele>
        <time>2024-05-19T07:35:23.000Z</time>
      </trkpt>
      <trkpt lat="52.111117" lon="-0.519586">
        <ele>38.695436</ele>
        <time>2024-05-19T07:35:24.000Z</time>
      </trkpt>
      <trkpt lat="52.111228" lon="-0.519479">
        <ele>38.58766</ele>
        <time>2024-05-19T07:35:25.000Z</time>
      </trkpt>
      <trkpt lat="52.111266" lon="-0.519403">
        <ele>38.530781</ele>
        <time>2024-05-19T07:35:26.000Z</time>
      </trkpt>
      <trkpt lat="52.111445" lon="-0.519521">
        <ele>38.366362</ele>
        <time>2024-05-19T07:35:28.000Z</time>
      </trkpt>
      <trkpt lat="52.111951" lon="-0.519777">
        <ele>38.118114</ele>
        <time>2024-05-19T07:35:34.000Z</time>
      </trkpt>
      <trkpt lat="52.113013" lon="-0.520058">
        <ele>37.755928</ele>
        <time>2024-05-19T07:35:46.000Z</time>
      </trkpt>
      <trkpt lat="52.113642" lon="-0.52011">
        <ele>37.593585</ele>
        <time>2024-05-19T07:35:53.000Z</time>
      </trkpt>
      <trkpt lat="52.114224" lon="-0.520037">
        <ele>37.479814</ele>
        <time>2024-05-19T07:35:59.000Z</time>
      </trkpt>
      <trkpt lat="52.114644" lon="-0.519969">
        <ele>37.40081</ele>
        <time>2024-05-19T07:36:04.000Z</time>
      </trkpt>
      <trkpt lat="52.115026" lon="-0.519821">
        <ele>37.322532</ele>
        <time>2024-05-19T07:36:08.000Z</time>
      </trkpt>
      <trkpt lat="52.115418" lon="-0.519681">
        <ele>36.876689</ele>
        <time>2024-05-19T07:36:12.000Z</time>
      </trkpt>
      <trkpt lat="52.115786" lon="-0.519485">
        <ele>36.342098</ele>
        <time>2024-05-19T07:36:16.000Z</time>
      </trkpt>
      <trkpt lat="52.116436" lon="-0.519011">
        <ele>35.334727</ele>
        <time>2024-05-19T07:36:24.000Z</time>
      </trkpt>
      <trkpt lat="52.116856" lon="-0.518625">
        <ele>34.609765</ele>
        <time>2024-05-19T07:36:29.000Z</time>
      </trkpt>
      <trkpt lat="52.117028" lon="-0.518476">
        <ele>34.252782</ele>
        <time>2024-05-19T07:36:31.000Z</time>
      </trkpt>
      <trkpt lat="52.117078" lon="-0.518561">
        <ele>34.127316</ele>
        <time>2024-05-19T07:36:32.000Z</time>
      </trkpt>
      <trkpt lat="52.117245" lon="-0.518639">
        <ele>33.787747</ele>
        <time>2024-05-19T07:36:34.000Z</time>
      </trkpt>
      <trkpt lat="52.117327" lon="-0.518584">
        <ele>33.617319</ele>
        <time>2024-05-19T07:36:35.000Z</time>
      </trkpt>
      <trkpt lat="52.117388" lon="-0.518483">
        <ele>33.468004</ele>
        <time>2024-05-19T07:36:36.000Z</time>
      </trkpt>
      <trkpt lat="52.117408" lon="-0.518284">
        <ele>33.24099</ele>
        <time>2024-05-19T07:36:37.000Z</time>
      </trkpt>
      <trkpt lat="52.117375" lon="-0.518181">
        <ele>33.112357</ele>
        <time>2024-05-19T07:36:38.000Z</time>
      </trkpt>
      <trkpt lat="52.118135" lon="-0.517038">
        <ele>31.327357</ele>
        <time>2024-05-19T07:36:50.000Z</time>
      </trkpt>
      <trkpt lat="52.118876" lon="-0.515809">
        <ele>30.327154</ele>
        <time>2024-05-19T07:37:02.000Z</time>
      </trkpt>
      <trkpt lat="52.119443" lon="-0.515034">
        <ele>29.715684</ele>
        <time>2024-05-19T07:37:10.000Z</time>
      </trkpt>
      <trkpt lat="52.120219" lon="-0.513803">
        <ele>29.332165</ele>
        <time>2024-05-19T07:37:22.000Z</time>
      </trkpt>
      <trkpt lat="52.120543" lon="-0.513224">
        <ele>29.164097</ele>
        <time>2024-05-19T07:37:27.000Z</time>
      </trkpt>
      <trkpt lat="52.12074" lon="-0.513055">
        <ele>29.148933</ele>
        <time>2024-05-19T07:37:29.000Z</time>
      </trkpt>
      <trkpt lat="52.120798" lon="-0.513082">
        <ele>29.156856</ele>
        <time>2024-05-19T07:37:30.000Z</time>
      </trkpt>
      <trkpt lat="52.120857" lon="-0.513089">
        <ele>29.164656</ele>
        <time>2024-05-19T07:37:31.000Z</time>
      </trkpt>
      <trkpt lat="52.121137" lon="-0.513243">
        <ele>29.203089</ele>
        <time>2024-05-19T07:37:34.000Z</time>
      </trkpt>
      <trkpt lat="52.121311" lon="-0.513482">
        <ele>29.233987</ele>
        <time>2024-05-19T07:37:37.000Z</time>
      </trkpt>
      <trkpt lat="52.121954" lon="-0.51433">
        <ele>29.346118</ele>
        <time>2024-05-19T07:37:46.000Z</time>
      </trkpt>
      <trkpt lat="52.12242" lon="-0.514804">
        <ele>29.548942</ele>
        <time>2024-05-19T07:37:52.000Z</time>
      </trkpt>
      <trkpt lat="52.123654" lon="-0.515661">
        <ele>30.234573</ele>
        <time>2024-05-19T07:38:07.000Z</time>
      </trkpt>
      <trkpt lat="52.126795" lon="-0.517209">
        <ele>31.337255</ele>
        <time>2024-05-19T07:38:43.000Z</time>
      </trkpt>
      <trkpt lat="52.127936" lon="-0.517686">
        <ele>31.521839</ele>
        <time>2024-05-19T07:38:56.000Z</time>
      </trkpt>
      <trkpt lat="52.128326" lon="-0.517842">
        <ele>31.553262</ele>
        <time>2024-05-19T07:39:00.000Z</time>
      </trkpt>
      <trkpt lat="52.128529" lon="-0.517976">
        <ele>31.571341</ele>
        <time>2024-05-19T07:39:02.000Z</time>
      </trkpt>
      <trkpt lat="52.128723" lon="-0.518169">
        <ele>31.588852</ele>
        <time>2024-05-19T07:39:05.000Z</time>
      </trkpt>
      <trkpt lat="52.128804" lon="-0.51831">
        <ele>31.598319</ele>
        <time>2024-05-19T07:39:06.000Z</time>
      </trkpt>
      <trkpt lat="52.128798" lon="-0.518507">
        <ele>31.600114</ele>
        <time>2024-05-19T07:39:07.000Z</time>
      </trkpt>
      <trkpt lat="52.128862" lon="-0.518667">
        <ele>31.579738</ele>
        <time>2024-05-19T07:39:08.000Z</time>
      </trkpt>
      <trkpt lat="52.12901" lon="-0.51881">
        <ele>31.54796</ele>
        <time>2024-05-19T07:39:10.000Z</time>
      </trkpt>
      <trkpt lat="52.129231" lon="-0.518749">
        <ele>31.509316</ele>
        <time>2024-05-19T07:39:12.000Z</time>
      </trkpt>
      <trkpt lat="52.129267" lon="-0.51869">
        <ele>31.499542</ele>
        <time>2024-05-19T07:39:13.000Z</time>
      </trkpt>
      <trkpt lat="52.129633" lon="-0.518685">
        <ele>31.434115</ele>
        <time>2024-05-19T07:39:17.000Z</time>
      </trkpt>
      <trkpt lat="52.129832" lon="-0.518776">
        <ele>31.394785</ele>
        <time>2024-05-19T07:39:19.000Z</time>
      </trkpt>
      <trkpt lat="52.131302" lon="-0.519606">
        <ele>31.076817</ele>
        <time>2024-05-19T07:39:36.000Z</time>
      </trkpt>
      <trkpt lat="52.134248" lon="-0.521463">
        <ele>30.398897</ele>
        <time>2024-05-19T07:40:11.000Z</time>
      </trkpt>
      <trkpt lat="52.135164" lon="-0.521916">
        <ele>30.335245</ele>
        <time>2024-05-19T07:40:22.000Z</time>
      </trkpt>
      <trkpt lat="52.135936" lon="-0.522168">
        <ele>30.438407</ele>
        <time>2024-05-19T07:40:31.000Z</time>
      </trkpt>
      <trkpt lat="52.136081" lon="-0.52219">
        <ele>30.483311</ele>
        <time>2024-05-19T07:40:33.000Z</time>
      </trkpt>
      <trkpt lat="52.136935" lon="-0.522336">
        <ele>30.730221</ele>
        <time>2024-05-19T07:40:43.000Z</time>
      </trkpt>
      <trkpt lat="52.137688" lon="-0.522343">
        <ele>30.932822</ele>
        <time>2024-05-19T07:40:51.000Z</time>
      </trkpt>
      <trkpt lat="52.141538" lon="-0.521834">
        <ele>31.83208</ele>
        <time>2024-05-19T07:41:34.000Z</time>
      </trkpt>
      <trkpt lat="52.141758" lon="-0.521801">
        <ele>31.892753</ele>
        <time>2024-05-19T07:41:36.000Z</time>
      </trkpt>
      <trkpt lat="52.142083" lon="-0.521904">
        <ele>31.979752</ele>
        <time>2024-05-19T07:41:40.000Z</time>
      </trkpt>
      <trkpt lat="52.142462" lon="-0.522093">
        <ele>32.080248</ele>
        <time>2024-05-19T07:41:44.000Z</time>
      </trkpt>
      <trkpt lat="52.142475" lon="-0.522158">
        <ele>32.090933</ele>
        <time>2024-05-19T07:41:44.000Z</time>
      </trkpt>
      <trkpt lat="52.1425" lon="-0.522208">
        <ele>32.101522</ele>
        <time>2024-05-19T07:41:44.000Z</time>
      </trkpt>
      <trkpt lat="52.142534" lon="-0.522256">
        <ele>32.112178</ele>
        <time>2024-05-19T07:41:45.000Z</time>
      </trkpt>
      <trkpt lat="52.142609" lon="-0.522308">
        <ele>32.141464</ele>
        <time>2024-05-19T07:41:46.000Z</time>
      </trkpt>
      <trkpt lat="52.14268" lon="-0.522335">
        <ele>32.226485</ele>
        <time>2024-05-19T07:41:47.000Z</time>
      </trkpt>
      <trkpt lat="52.142765" lon="-0.522294">
        <ele>32.311681</ele>
        <time>2024-05-19T07:41:48.000Z</time>
      </trkpt>
      <trkpt lat="52.142815" lon="-0.522246">
        <ele>32.37702</ele>
        <time>2024-05-19T07:41:49.000Z</time>
      </trkpt>
      <trkpt lat="52.142886" lon="-0.522102">
        <ele>32.50598</ele>
        <time>2024-05-19T07:41:50.000Z</time>
      </trkpt>
      <trkpt lat="52.142902" lon="-0.521902">
        <ele>32.635946</ele>
        <time>2024-05-19T07:41:51.000Z</time>
      </trkpt>
      <trkpt lat="52.142885" lon="-0.521809">
        <ele>32.70136</ele>
        <time>2024-05-19T07:41:52.000Z</time>
      </trkpt>
      <trkpt lat="52.142928" lon="-0.52077">
        <ele>33.377007</ele>
        <time>2024-05-19T07:41:59.000Z</time>
      </trkpt>
      <trkpt lat="52.143034" lon="-0.51987">
        <ele>33.985523</ele>
        <time>2024-05-19T07:42:05.000Z</time>
      </trkpt>
      <trkpt lat="52.143068" lon="-0.519637">
        <ele>34.154278</ele>
        <time>2024-05-19T07:42:07.000Z</time>
      </trkpt>
      <trkpt lat="52.1432" lon="-0.518518">
        <ele>35.096604</ele>
        <time>2024-05-19T07:42:15.000Z</time>
      </trkpt>
      <trkpt lat="52.143346" lon="-0.517352">
        <ele>36.082908</ele>
        <time>2024-05-19T07:42:23.000Z</time>
      </trkpt>
      <trkpt lat="52.143388" lon="-0.516992">
        <ele>36.386823</ele>
        <time>2024-05-19T07:42:26.000Z</time>
      </trkpt>
      <trkpt lat="52.143479" lon="-0.516088">
        <ele>36.536488</ele>
        <time>2024-05-19T07:42:32.000Z</time>
      </trkpt>
      <trkpt lat="52.143779" lon="-0.51604">
        <ele>36.581703</ele>
        <time>2024-05-19T07:42:35.000Z</time>
      </trkpt>
      <trkpt lat="52.143901" lon="-0.516097">
        <ele>36.59869</ele>
        <time>2024-05-19T07:42:36.000Z</time>
      </trkpt>
      <trkpt lat="52.143943" lon="-0.516145">
        <ele>36.608223</ele>
        <time>2024-05-19T07:42:37.000Z</time>
      </trkpt>
      <trkpt lat="52.144071" lon="-0.516483">
        <ele>36.642958</ele>
        <time>2024-05-19T07:42:40.000Z</time>
      </trkpt>
      <trkpt lat="52.144166" lon="-0.517199">
        <ele>36.708594</ele>
        <time>2024-05-19T07:42:45.000Z</time>
      </trkpt>
      <trkpt lat="52.144252" lon="-0.51787">
        <ele>36.438616</ele>
        <time>2024-05-19T07:42:50.000Z</time>
      </trkpt>
      <trkpt lat="52.14438" lon="-0.518984">
        <ele>35.766352</ele>
        <time>2024-05-19T07:42:58.000Z</time>
      </trkpt>
      <trkpt lat="52.144564" lon="-0.520625">
        <ele>34.826169</ele>
        <time>2024-05-19T07:43:09.000Z</time>
      </trkpt>
      <trkpt lat="52.144597" lon="-0.520961">
        <ele>34.679336</ele>
        <time>2024-05-19T07:43:11.000Z</time>
      </trkpt>
      <trkpt lat="52.144843" lon="-0.523057">
        <ele>33.735534</ele>
        <time>2024-05-19T07:43:26.000Z</time>
      </trkpt>
      <trkpt lat="52.145014" lon="-0.52441">
        <ele>34.395132</ele>
        <time>2024-05-19T07:43:35.000Z</time>
      </trkpt>
      <trkpt lat="52.145022" lon="-0.524597">
        <ele>34.49506</ele>
        <time>2024-05-19T07:43:36.000Z</time>
      </trkpt>
      <trkpt lat="52.145034" lon="-0.524705">
        <ele>34.556074</ele>
        <time>2024-05-19T07:43:37.000Z</time>
      </trkpt>
      <trkpt lat="52.145025" lon="-0.524816">
        <ele>34.620746</ele>
        <time>2024-05-19T07:43:38.000Z</time>
      </trkpt>
      <trkpt lat="52.145017" lon="-0.525056">
        <ele>34.744603</ele>
        <time>2024-05-19T07:43:40.000Z</time>
      </trkpt>
      <trkpt lat="52.144976" lon="-0.525388">
        <ele>34.939429</ele>
        <time>2024-05-19T07:43:42.000Z</time>
      </trkpt>
      <trkpt lat="52.144923" lon="-0.525776">
        <ele>35.151286</ele>
        <time>2024-05-19T07:43:45.000Z</time>
      </trkpt>
      <trkpt lat="52.144898" lon="-0.525995">
        <ele>35.278185</ele>
        <time>2024-05-19T07:43:47.000Z</time>
      </trkpt>
      <trkpt lat="52.144862" lon="-0.526414">
        <ele>35.498791</ele>
        <time>2024-05-19T07:43:50.000Z</time>
      </trkpt>
      <trkpt lat="52.144838" lon="-0.526691">
        <ele>35.650371</ele>
        <time>2024-05-19T07:43:52.000Z</time>
      </trkpt>
      <trkpt lat="52.144846" lon="-0.526908">
        <ele>35.76829</ele>
        <time>2024-05-19T07:43:53.000Z</time>
      </trkpt>
      <trkpt lat="52.144777" lon="-0.527125">
        <ele>35.891147</ele>
        <time>2024-05-19T07:43:55.000Z</time>
      </trkpt>
      <trkpt lat="52.144699" lon="-0.527641">
        <ele>36.180358</ele>
        <time>2024-05-19T07:43:59.000Z</time>
      </trkpt>
      <trkpt lat="52.144682" lon="-0.527859">
        <ele>36.288774</ele>
        <time>2024-05-19T07:44:00.000Z</time>
      </trkpt>
      <trkpt lat="52.144619" lon="-0.527896">
        <ele>36.341005</ele>
        <time>2024-05-19T07:44:01.000Z</time>
      </trkpt>
      <trkpt lat="52.144294" lon="-0.527932">
        <ele>36.626425</ele>
        <time>2024-05-19T07:44:05.000Z</time>
      </trkpt>
      <trkpt lat="52.14383" lon="-0.527816">
        <ele>36.735383</ele>
        <time>2024-05-19T07:44:10.000Z</time>
      </trkpt>
      <trkpt lat="52.143721" lon="-0.52781">
        <ele>36.671183</ele>
        <time>2024-05-19T07:44:11.000Z</time>
      </trkpt>
      <trkpt lat="52.143176" lon="-0.527703">
        <ele>36.335566</ele>
        <time>2024-05-19T07:44:17.000Z</time>
      </trkpt>
      <trkpt lat="52.143012" lon="-0.527665">
        <ele>36.245553</ele>
        <time>2024-05-19T07:44:19.000Z</time>
      </trkpt>
      <trkpt lat="52.142798" lon="-0.527618">
        <ele>36.110681</ele>
        <time>2024-05-19T07:44:21.000Z</time>
      </trkpt>
      <trkpt lat="52.14087" lon="-0.527231">
        <ele>34.698957</ele>
        <time>2024-05-19T07:44:43.000Z</time>
      </trkpt>
      <trkpt lat="52.140591" lon="-0.527178">
        <ele>34.470413</ele>
        <time>2024-05-19T07:44:46.000Z</time>
      </trkpt>
      <trkpt lat="52.140355" lon="-0.52712">
        <ele>34.49744</ele>
        <time>2024-05-19T07:44:49.000Z</time>
      </trkpt>
      <trkpt lat="52.139864" lon="-0.526947">
        <ele>35.073841</ele>
        <time>2024-05-19T07:44:55.000Z</time>
      </trkpt>
      <trkpt lat="52.139632" lon="-0.526943">
        <ele>35.359333</ele>
        <time>2024-05-19T07:44:58.000Z</time>
      </trkpt>
      <trkpt lat="52.139468" lon="-0.526967">
        <ele>35.538834</ele>
        <time>2024-05-19T07:45:00.000Z</time>
      </trkpt>
      <trkpt lat="52.138985" lon="-0.527266">
        <ele>36.136213</ele>
        <time>2024-05-19T07:45:06.000Z</time>
      </trkpt>
      <trkpt lat="52.138826" lon="-0.527524">
        <ele>36.407756</ele>
        <time>2024-05-19T07:45:08.000Z</time>
      </trkpt>
      <trkpt lat="52.138555" lon="-0.528029">
        <ele>37.284927</ele>
        <time>2024-05-19T07:45:13.000Z</time>
      </trkpt>
      <trkpt lat="52.138368" lon="-0.528259">
        <ele>37.790437</ele>
        <time>2024-05-19T07:45:16.000Z</time>
      </trkpt>
      <trkpt lat="52.138344" lon="-0.528275">
        <ele>37.861341</ele>
        <time>2024-05-19T07:45:16.000Z</time>
      </trkpt>
      <trkpt lat="52.138168" lon="-0.52836">
        <ele>38.253683</ele>
        <time>2024-05-19T07:45:18.000Z</time>
      </trkpt>
      <trkpt lat="52.137884" lon="-0.528447">
        <ele>38.907033</ele>
        <time>2024-05-19T07:45:21.000Z</time>
      </trkpt>
      <trkpt lat="52.137594" lon="-0.528478">
        <ele>39.569316</ele>
        <time>2024-05-19T07:45:24.000Z</time>
      </trkpt>
      <trkpt lat="52.137451" lon="-0.528531">
        <ele>39.891477</ele>
        <time>2024-05-19T07:45:26.000Z</time>
      </trkpt>
      <trkpt lat="52.136888" lon="-0.528551">
        <ele>40.819144</ele>
        <time>2024-05-19T07:45:32.000Z</time>
      </trkpt>
      <trkpt lat="52.135698" lon="-0.528541">
        <ele>42.237068</ele>
        <time>2024-05-19T07:45:45.000Z</time>
      </trkpt>
      <trkpt lat="52.13528" lon="-0.528625">
        <ele>42.749936</ele>
        <time>2024-05-19T07:45:50.000Z</time>
      </trkpt>
      <trkpt lat="52.134554" lon="-0.528815">
        <ele>43.622427</ele>
        <time>2024-05-19T07:45:58.000Z</time>
      </trkpt>
      <trkpt lat="52.134281" lon="-0.528763">
        <ele>43.958053</ele>
        <time>2024-05-19T07:46:01.000Z</time>
      </trkpt>
      <trkpt lat="52.133825" lon="-0.528675">
        <ele>44.508145</ele>
        <time>2024-05-19T07:46:06.000Z</time>
      </trkpt>
      <trkpt lat="52.133467" lon="-0.528664">
        <ele>44.614406</ele>
        <time>2024-05-19T07:46:10.000Z</time>
      </trkpt>
      <trkpt lat="52.133295" lon="-0.528715">
        <ele>44.426865</ele>
        <time>2024-05-19T07:46:12.000Z</time>
      </trkpt>
      <trkpt lat="52.13322" lon="-0.528749">
        <ele>44.336262</ele>
        <time>2024-05-19T07:46:13.000Z</time>
      </trkpt>
      <trkpt lat="52.133027" lon="-0.528879">
        <ele>44.11781</ele>
        <time>2024-05-19T07:46:15.000Z</time>
      </trkpt>
      <trkpt lat="52.132849" lon="-0.528993">
        <ele>43.915011</ele>
        <time>2024-05-19T07:46:17.000Z</time>
      </trkpt>
      <trkpt lat="52.132692" lon="-0.529077">
        <ele>43.756421</ele>
        <time>2024-05-19T07:46:19.000Z</time>
      </trkpt>
      <trkpt lat="52.132399" lon="-0.529247">
        <ele>43.424287</ele>
        <time>2024-05-19T07:46:22.000Z</time>
      </trkpt>
      <trkpt lat="52.13215" lon="-0.529255">
        <ele>43.156039</ele>
        <time>2024-05-19T07:46:25.000Z</time>
      </trkpt>
      <trkpt lat="52.131677" lon="-0.52903">
        <ele>42.336491</ele>
        <time>2024-05-19T07:46:30.000Z</time>
      </trkpt>
      <trkpt lat="52.131287" lon="-0.528592">
        <ele>41.152549</ele>
        <time>2024-05-19T07:46:35.000Z</time>
      </trkpt>
      <trkpt lat="52.131238" lon="-0.528473">
        <ele>40.931573</ele>
        <time>2024-05-19T07:46:36.000Z</time>
      </trkpt>
      <trkpt lat="52.131136" lon="-0.528259">
        <ele>40.524041</ele>
        <time>2024-05-19T07:46:38.000Z</time>
      </trkpt>
      <trkpt lat="52.130991" lon="-0.5279">
        <ele>39.88148</ele>
        <time>2024-05-19T07:46:41.000Z</time>
      </trkpt>
      <trkpt lat="52.130933" lon="-0.527784">
        <ele>39.632842</ele>
        <time>2024-05-19T07:46:42.000Z</time>
      </trkpt>
      <trkpt lat="52.130893" lon="-0.52773">
        <ele>39.516724</ele>
        <time>2024-05-19T07:46:43.000Z</time>
      </trkpt>
      <trkpt lat="52.130764" lon="-0.527578">
        <ele>39.12109</ele>
        <time>2024-05-19T07:46:45.000Z</time>
      </trkpt>
      <trkpt lat="52.130489" lon="-0.527438">
        <ele>38.371344</ele>
        <time>2024-05-19T07:46:48.000Z</time>
      </trkpt>
      <trkpt lat="52.130027" lon="-0.527242">
        <ele>37.784325</ele>
        <time>2024-05-19T07:46:53.000Z</time>
      </trkpt>
      <trkpt lat="52.128853" lon="-0.526968">
        <ele>36.33376</ele>
        <time>2024-05-19T07:47:06.000Z</time>
      </trkpt>
      <trkpt lat="52.12747" lon="-0.526362">
        <ele>35.994274</ele>
        <time>2024-05-19T07:47:22.000Z</time>
      </trkpt>
      <trkpt lat="52.126932" lon="-0.526067">
        <ele>35.913</ele>
        <time>2024-05-19T07:47:28.000Z</time>
      </trkpt>
      <trkpt lat="52.12644" lon="-0.525739">
        <ele>35.749967</ele>
        <time>2024-05-19T07:47:34.000Z</time>
      </trkpt>
      <trkpt lat="52.12633" lon="-0.525677">
        <ele>35.717985</ele>
        <time>2024-05-19T07:47:35.000Z</time>
      </trkpt>
      <trkpt lat="52.125336" lon="-0.525121">
        <ele>35.399962</ele>
        <time>2024-05-19T07:47:47.000Z</time>
      </trkpt>
      <trkpt lat="52.123943" lon="-0.524099">
        <ele>33.791489</ele>
        <time>2024-05-19T07:48:04.000Z</time>
      </trkpt>
      <trkpt lat="52.123879" lon="-0.524061">
        <ele>33.714056</ele>
        <time>2024-05-19T07:48:05.000Z</time>
      </trkpt>
      <trkpt lat="52.123499" lon="-0.523907">
        <ele>33.427386473</ele>
        <time>2024-05-19T07:48:09.000Z</time>
      </trkpt>
      <trkpt lat="52.122181" lon="-0.523376">
        <ele>32.4334342402</ele>
        <time>2024-05-19T07:48:24.000Z</time>
      </trkpt>
    </trkseg>
  </trk>
</gpx>

<!--
Performance optimized by W3 Total Cache. Learn more: https://www.boldgrid.com/w3-total-cache/?utm_source=w3tc&utm_medium=footer_comment&utm_campaign=free_plugin

Page Caching using Disk: Enhanced{w3tc_pagecache_reject_reason} 

Served from: www.aquabike.world @ 2026-05-10 08:24:35 by W3 Total Cache
-->